createdAt,value
2019-02-20T00:01:23.566Z,12.63
2019-02-20T00:03:54.043Z,10.60
2019-02-20T00:06:23.154Z,11.10
2019-02-20T00:08:52.554Z,12.13
2019-02-20T00:11:21.557Z,11.80
2019-02-20T00:13:51.585Z,9.53
2019-02-20T00:16:20.981Z,10.83
2019-02-20T00:18:50.675Z,10.60
2019-02-20T00:21:24.479Z,10.70
2019-02-20T00:23:55.331Z,11.63
2019-02-20T00:26:25.072Z,9.80
2019-02-20T00:28:54.787Z,10.23
2019-02-20T00:31:24.520Z,10.27
2019-02-20T00:33:54.356Z,10.73
2019-02-20T00:36:24.297Z,10.87
2019-02-20T00:38:53.855Z,11.23
2019-02-20T00:41:23.554Z,10.90
2019-02-20T00:44:27.143Z,11.30
2019-02-20T00:47:09.173Z,10.27
2019-02-20T00:49:42.120Z,11.33
2019-02-20T00:52:20.790Z,11.47
2019-02-20T00:54:49.950Z,10.30
2019-02-20T00:57:19.681Z,11.10
2019-02-20T00:59:49.665Z,10.90
2019-02-20T01:02:19.082Z,10.67
2019-02-20T01:04:49.084Z,10.67
2019-02-20T01:07:18.571Z,10.00
2019-02-20T01:09:49.089Z,9.77
2019-02-20T01:12:18.630Z,8.80
2019-02-20T01:14:48.048Z,8.50
2019-02-20T01:17:18.862Z,7.97
2019-02-20T01:19:48.293Z,8.00
2019-02-20T01:22:17.387Z,8.10
2019-02-20T01:24:46.999Z,7.83
2019-02-20T01:27:16.219Z,8.03
2019-02-20T01:29:45.882Z,8.57
2019-02-20T01:32:15.566Z,8.00
2019-02-20T01:34:46.237Z,9.03
2019-02-20T01:37:15.742Z,9.47
2019-02-20T01:39:44.842Z,8.40
2019-02-20T01:42:14.654Z,9.07
2019-02-20T01:44:44.429Z,9.30
2019-02-20T01:47:13.997Z,8.53
2019-02-20T01:49:43.930Z,9.07
2019-02-20T01:52:13.642Z,9.23
2019-02-20T01:54:43.154Z,10.13
2019-02-20T01:57:13.341Z,9.10
2019-02-20T01:59:42.780Z,9.63
2019-02-20T02:02:12.485Z,8.83
2019-02-20T02:04:41.802Z,9.27
2019-02-20T02:07:11.158Z,9.50
2019-02-20T02:09:41.066Z,9.23
2019-02-20T02:12:12.701Z,9.93
2019-02-20T02:14:42.388Z,9.07
2019-02-20T02:17:11.816Z,9.33
2019-02-20T02:19:44.218Z,9.10
2019-02-20T02:22:13.944Z,9.60
2019-02-20T02:24:45.877Z,8.63
2019-02-20T02:27:17.992Z,9.37
2019-02-20T02:29:47.812Z,10.10
2019-02-20T02:32:17.995Z,9.27
2019-02-20T02:34:47.481Z,9.83
2019-02-20T02:37:17.225Z,9.70
2019-02-20T02:39:46.383Z,10.20
2019-02-20T02:42:15.851Z,9.53
2019-02-20T02:44:45.618Z,9.67
2019-02-20T02:47:15.978Z,9.87
2019-02-20T02:49:45.508Z,10.17
2019-02-20T02:52:14.846Z,9.57
2019-02-20T02:54:44.533Z,9.40
2019-02-20T02:57:14.620Z,10.60
2019-02-20T02:59:44.515Z,10.10
2019-02-20T03:02:15.232Z,10.00
2019-02-20T03:04:45.919Z,10.30
2019-02-20T03:07:15.667Z,10.77
2019-02-20T03:09:45.796Z,11.10
2019-02-20T03:12:15.690Z,10.50
2019-02-20T03:14:50.053Z,10.97
2019-02-20T03:17:19.185Z,11.87
2019-02-20T03:19:49.173Z,10.53
2019-02-20T03:22:18.390Z,10.70
2019-02-20T03:24:49.843Z,11.67
2019-02-20T03:27:20.063Z,11.90
2019-02-20T03:29:49.611Z,11.33
2019-02-20T03:32:18.967Z,11.37
2019-02-20T03:34:48.544Z,12.20
2019-02-20T03:37:17.900Z,11.90
2019-02-20T03:39:47.123Z,11.43
2019-02-20T03:42:16.964Z,11.47
2019-02-20T03:44:46.452Z,11.43
2019-02-20T03:47:20.382Z,12.13
2019-02-20T03:49:49.711Z,11.27
2019-02-20T03:52:19.855Z,10.27
2019-02-20T03:54:49.694Z,11.43
2019-02-20T03:57:19.558Z,11.90
2019-02-20T03:59:48.952Z,11.10
2019-02-20T04:02:18.849Z,12.33
2019-02-20T04:04:48.150Z,12.00
2019-02-20T04:07:18.498Z,11.60
2019-02-20T04:09:48.355Z,12.17
2019-02-20T04:12:17.556Z,11.33
2019-02-20T04:14:46.881Z,10.97
2019-02-20T04:17:18.554Z,12.63
2019-02-20T04:19:47.643Z,11.50
2019-02-20T04:22:18.297Z,10.70
2019-02-20T04:24:52.970Z,12.90
2019-02-20T04:27:22.118Z,11.83
2019-02-20T04:29:51.256Z,12.00
2019-02-20T04:32:20.331Z,11.53
2019-02-20T04:34:49.744Z,11.70
2019-02-20T04:37:19.387Z,11.77
2019-02-20T04:39:48.936Z,12.17
2019-02-20T04:42:21.515Z,11.20
2019-02-20T04:44:51.232Z,10.90
2019-02-20T04:47:20.803Z,11.53
2019-02-20T04:49:50.350Z,11.37
2019-02-20T04:52:23.257Z,11.57
2019-02-20T04:54:59.153Z,11.40
2019-02-20T04:57:28.337Z,12.10
2019-02-20T04:59:58.131Z,11.50
2019-02-20T05:02:27.316Z,11.93
2019-02-20T05:04:57.443Z,13.17
2019-02-20T05:07:30.470Z,12.17
2019-02-20T05:10:00.340Z,12.63
2019-02-20T05:12:29.853Z,11.77
2019-02-20T05:15:02.658Z,12.90
2019-02-20T05:17:38.728Z,11.87
2019-02-20T05:20:08.240Z,13.00
2019-02-20T05:22:42.746Z,11.00
2019-02-20T05:25:14.696Z,11.17
2019-02-20T05:27:45.835Z,11.20
2019-02-20T05:30:26.266Z,12.20
2019-02-20T05:32:57.044Z,12.13
2019-02-20T05:35:30.431Z,11.47
2019-02-20T05:38:01.329Z,11.33
2019-02-20T05:40:34.797Z,11.87
2019-02-20T05:43:07.179Z,11.80
2019-02-20T05:45:42.326Z,10.17
2019-02-20T05:48:13.262Z,10.50
2019-02-20T05:50:47.118Z,10.60
2019-02-20T05:53:17.277Z,12.67
2019-02-20T05:55:54.542Z,12.53
2019-02-20T05:58:26.817Z,12.83
2019-02-20T06:00:56.534Z,11.13
2019-02-20T06:03:26.653Z,10.97
2019-02-20T06:06:01.807Z,12.03
2019-02-20T06:08:36.810Z,12.37
2019-02-20T06:11:18.183Z,12.70
2019-02-20T06:13:49.210Z,12.13
2019-02-20T06:16:20.382Z,13.17
2019-02-20T06:18:51.697Z,11.80
2019-02-20T06:21:22.508Z,15.00
2019-02-20T06:23:51.791Z,12.73
2019-02-20T06:26:25.289Z,13.50
2019-02-20T06:28:58.979Z,13.07
2019-02-20T06:31:28.146Z,13.43
2019-02-20T06:33:57.562Z,14.23
2019-02-20T06:36:26.778Z,15.50
2019-02-20T06:38:56.698Z,14.33
2019-02-20T06:41:27.295Z,15.17
2019-02-20T06:43:57.033Z,14.87
2019-02-20T06:46:26.656Z,15.30
2019-02-20T06:48:55.768Z,17.00
2019-02-20T06:51:25.703Z,15.40
2019-02-20T06:53:57.544Z,16.10
2019-02-20T06:56:29.106Z,17.40
2019-02-20T06:59:00.951Z,14.83
2019-02-20T07:01:30.789Z,17.17
2019-02-20T07:04:02.271Z,16.47
2019-02-20T07:07:08.008Z,16.83
2019-02-20T07:10:01.531Z,14.93
2019-02-20T07:12:55.809Z,14.80
2019-02-20T07:16:06.390Z,16.57
2019-02-20T07:18:59.328Z,16.57
2019-02-20T07:22:05.524Z,17.50
2019-02-20T07:25:07.762Z,16.37
2019-02-20T07:28:14.136Z,16.07
2019-02-20T07:30:43.367Z,15.33
2019-02-20T07:33:13.460Z,16.17
2019-02-20T07:35:42.673Z,15.30
2019-02-20T07:38:12.133Z,16.77
2019-02-20T07:40:41.810Z,15.80
2019-02-20T07:43:11.933Z,16.30
2019-02-20T07:45:41.689Z,16.77
2019-02-20T07:48:10.989Z,17.40
2019-02-20T07:50:40.505Z,16.77
2019-02-20T07:53:10.734Z,16.60
2019-02-20T07:55:40.287Z,17.77
2019-02-20T07:58:10.119Z,20.03
2019-02-20T08:00:40.079Z,18.87
2019-02-20T08:03:10.551Z,17.50
2019-02-20T08:05:39.774Z,18.30
2019-02-20T08:08:08.967Z,17.90
2019-02-20T08:10:38.759Z,16.47
2019-02-20T08:13:09.479Z,16.47
2019-02-20T08:15:39.414Z,17.53
2019-02-20T08:18:10.819Z,18.57
2019-02-20T08:20:40.565Z,17.83
2019-02-20T08:23:10.414Z,16.63
2019-02-20T08:25:42.535Z,15.80
2019-02-20T08:28:20.726Z,17.43
2019-02-20T08:31:08.479Z,16.13
2019-02-20T08:33:45.260Z,17.23
2019-02-20T08:36:30.241Z,17.53
2019-02-20T08:39:00.696Z,16.27
2019-02-20T08:41:30.418Z,17.53
2019-02-20T08:44:02.955Z,18.20
2019-02-20T08:46:34.090Z,17.50
2019-02-20T08:49:05.088Z,16.57
2019-02-20T08:51:34.953Z,16.53
2019-02-20T08:54:05.373Z,14.83
2019-02-20T08:56:34.598Z,16.50
2019-02-20T08:59:03.861Z,16.93
2019-02-20T09:01:33.814Z,17.40
2019-02-20T09:04:04.623Z,17.40
2019-02-20T09:06:35.450Z,16.50
2019-02-20T09:09:10.616Z,17.60
2019-02-20T09:11:45.596Z,18.60
2019-02-20T09:14:15.346Z,17.00
2019-02-20T09:16:47.151Z,18.47
2019-02-20T09:19:17.130Z,17.97
2019-02-20T09:21:47.545Z,17.50
2019-02-20T09:24:22.193Z,17.80
2019-02-20T09:27:26.698Z,19.20
2019-02-20T09:30:10.695Z,17.90
2019-02-20T09:32:43.823Z,18.23
2019-02-20T09:35:16.977Z,17.10
2019-02-20T09:37:46.625Z,17.57
2019-02-20T09:40:20.498Z,17.80
2019-02-20T09:42:49.776Z,16.67
2019-02-20T09:45:41.643Z,19.27
2019-02-20T09:48:05.223Z,16.80
2019-02-20T09:50:35.012Z,17.23
2019-02-20T09:53:04.850Z,16.50
2019-02-20T09:55:35.407Z,18.63
2019-02-20T09:58:04.652Z,17.53
2019-02-20T10:00:35.537Z,19.53
2019-02-20T10:03:05.122Z,17.97
2019-02-20T10:05:36.259Z,16.43
2019-02-20T10:08:05.565Z,18.23
2019-02-20T10:10:35.847Z,18.30
2019-02-20T10:13:05.351Z,19.17
2019-02-20T10:15:35.256Z,18.50
2019-02-20T10:18:07.585Z,19.33
2019-02-20T10:20:44.670Z,18.63
2019-02-20T10:23:22.564Z,19.40
2019-02-20T10:26:01.214Z,17.77
2019-02-20T10:28:32.245Z,17.53
2019-02-20T10:31:03.894Z,17.97
2019-02-20T10:33:34.981Z,17.93
2019-02-20T10:36:04.783Z,18.70
2019-02-20T10:38:34.545Z,19.03
2019-02-20T10:41:06.624Z,19.00
2019-02-20T10:43:36.204Z,18.90
2019-02-20T10:46:05.862Z,20.30
2019-02-20T10:48:36.861Z,18.47
2019-02-20T10:51:06.731Z,18.97
2019-02-20T10:53:42.572Z,18.40
2019-02-20T10:56:09.807Z,17.13
2019-02-20T10:58:40.259Z,18.07
2019-02-20T11:01:09.923Z,16.13
2019-02-20T11:03:40.315Z,18.30
2019-02-20T11:06:12.647Z,17.40
2019-02-20T11:08:42.874Z,17.13
2019-02-20T11:11:12.915Z,17.10
2019-02-20T11:13:43.879Z,17.20
2019-02-20T11:16:13.477Z,15.67
2019-02-20T11:18:43.332Z,16.57
2019-02-20T11:21:15.499Z,16.73
2019-02-20T11:23:44.985Z,17.20
2019-02-20T11:26:18.268Z,16.80
2019-02-20T11:28:45.191Z,17.07
2019-02-20T11:31:14.937Z,15.37
2019-02-20T11:33:46.976Z,16.50
2019-02-20T11:36:16.709Z,16.23
2019-02-20T11:38:47.852Z,17.13
2019-02-20T11:41:17.849Z,16.50
2019-02-20T11:43:47.475Z,17.47
2019-02-20T11:46:17.373Z,17.77
2019-02-20T11:48:48.316Z,17.47
2019-02-20T11:51:17.786Z,15.80
2019-02-20T11:53:47.873Z,15.53
2019-02-20T11:56:17.353Z,16.07
2019-02-20T11:58:47.197Z,15.40
2019-02-20T12:01:20.161Z,14.13
2019-02-20T12:03:53.620Z,14.97
2019-02-20T12:06:23.588Z,14.53
2019-02-20T12:08:59.941Z,16.73
2019-02-20T12:11:29.467Z,16.80
2019-02-20T12:14:46.075Z,16.13
2019-02-20T12:17:16.140Z,17.13
2019-02-20T12:19:46.990Z,17.20
2019-02-20T12:22:19.414Z,19.03
2019-02-20T12:24:51.219Z,18.20
2019-02-20T12:27:20.546Z,20.00
2019-02-20T12:29:53.911Z,16.80
2019-02-20T12:32:23.431Z,18.33
2019-02-20T12:34:55.514Z,19.50
2019-02-20T12:37:25.129Z,17.90
2019-02-20T12:39:57.323Z,17.20
2019-02-20T12:42:26.906Z,18.87
2019-02-20T12:45:00.318Z,19.77
2019-02-20T12:47:30.571Z,20.10
2019-02-20T12:50:02.620Z,19.27
2019-02-20T12:52:35.792Z,19.57
2019-02-20T12:55:08.269Z,18.47
2019-02-20T12:57:45.868Z,19.87
2019-02-20T13:00:15.929Z,17.83
2019-02-20T13:02:45.502Z,18.67
2019-02-20T13:05:15.363Z,17.87
2019-02-20T13:07:47.024Z,16.87
2019-02-20T13:10:17.038Z,16.20
2019-02-20T13:12:47.693Z,14.73
2019-02-20T13:15:17.331Z,15.37
2019-02-20T13:17:47.108Z,15.87
2019-02-20T13:20:16.597Z,16.80
2019-02-20T13:22:45.808Z,16.37
2019-02-20T13:25:15.011Z,15.80
2019-02-20T13:27:52.226Z,14.57
2019-02-20T13:30:21.421Z,14.37
2019-02-20T13:32:51.320Z,15.87
2019-02-20T13:35:20.868Z,16.17
2019-02-20T13:37:51.964Z,16.93
2019-02-20T13:40:22.022Z,14.60
2019-02-20T13:42:51.378Z,13.23
2019-02-20T13:45:20.785Z,13.30
2019-02-20T13:48:20.865Z,13.13
2019-02-20T13:50:50.455Z,14.93
2019-02-20T13:53:19.678Z,13.70
2019-02-20T13:55:49.400Z,13.17
2019-02-20T13:58:19.111Z,14.47
2019-02-20T14:00:48.562Z,14.13
2019-02-20T14:03:18.166Z,14.40
2019-02-20T14:05:47.949Z,12.40
2019-02-20T14:08:17.484Z,12.73
2019-02-20T14:10:49.001Z,12.17
2019-02-20T14:13:20.740Z,12.20
2019-02-20T14:15:51.929Z,12.43
2019-02-20T14:18:21.031Z,11.83
2019-02-20T14:20:50.294Z,11.07
2019-02-20T14:23:20.675Z,12.00
2019-02-20T14:25:50.538Z,11.30
2019-02-20T14:28:20.795Z,12.10
2019-02-20T14:30:51.123Z,10.73
2019-02-20T14:33:20.503Z,11.60
2019-02-20T14:35:52.761Z,11.77
2019-02-20T14:38:22.273Z,11.40
2019-02-20T14:40:51.773Z,9.67
2019-02-20T14:43:22.903Z,10.23
2019-02-20T14:45:53.612Z,10.97
2019-02-20T14:48:23.787Z,10.90
2019-02-20T14:50:55.700Z,10.63
2019-02-20T14:53:27.438Z,10.97
2019-02-20T14:55:59.628Z,11.20
2019-02-20T14:58:50.155Z,11.47
2019-02-20T15:01:19.384Z,11.27
2019-02-20T15:03:48.837Z,11.40
2019-02-20T15:06:18.897Z,11.53
2019-02-20T15:08:50.060Z,10.60
2019-02-20T15:11:20.178Z,11.57
2019-02-20T15:13:49.817Z,11.37
2019-02-20T15:16:20.039Z,12.70
2019-02-20T15:18:50.638Z,11.03
2019-02-20T15:21:25.103Z,12.37
2019-02-20T15:23:56.568Z,11.90
2019-02-20T15:26:26.380Z,12.60
2019-02-20T15:28:56.586Z,12.07
2019-02-20T15:31:33.392Z,12.47
2019-02-20T15:33:57.451Z,11.50
2019-02-20T15:36:28.338Z,11.27
2019-02-20T15:38:58.645Z,12.47
2019-02-20T15:41:28.446Z,12.60
2019-02-20T15:43:58.542Z,11.83
2019-02-20T15:46:28.214Z,11.57
2019-02-20T15:48:57.447Z,12.97
2019-02-20T15:51:29.186Z,12.73
2019-02-20T15:54:01.814Z,12.03
2019-02-20T15:56:33.445Z,12.80
2019-02-20T15:59:02.823Z,11.47
2019-02-20T16:01:32.835Z,11.30
2019-02-20T16:04:03.103Z,12.70
2019-02-20T16:06:33.579Z,11.47
2019-02-20T16:09:03.592Z,12.63
2019-02-20T16:11:38.595Z,12.07
2019-02-20T16:14:08.475Z,11.77
2019-02-20T16:16:40.750Z,12.07
2019-02-20T16:19:11.482Z,12.43
2019-02-20T16:21:44.241Z,12.50
2019-02-20T16:24:13.684Z,12.57
2019-02-20T16:26:46.633Z,13.80
2019-02-20T16:29:17.424Z,11.10
2019-02-20T16:31:52.625Z,12.20
2019-02-20T16:34:28.449Z,11.30
2019-02-20T16:36:59.395Z,11.17
2019-02-20T16:39:32.387Z,11.90
2019-02-20T16:42:02.968Z,12.67
2019-02-20T16:44:33.258Z,12.53
2019-02-20T16:47:03.393Z,12.30
2019-02-20T16:49:33.948Z,11.83
2019-02-20T16:52:07.896Z,11.13
2019-02-20T16:54:37.964Z,12.13
2019-02-20T16:57:10.476Z,12.17
2019-02-20T16:59:41.384Z,11.63
2019-02-20T17:02:11.449Z,11.30
2019-02-20T17:04:41.607Z,11.50
2019-02-20T17:07:13.299Z,12.13
2019-02-20T17:09:45.551Z,11.93
2019-02-20T17:12:15.552Z,12.87
2019-02-20T17:14:45.414Z,11.03
2019-02-20T17:17:15.494Z,10.60
2019-02-20T17:19:45.538Z,10.97
2019-02-20T17:22:15.135Z,11.80
2019-02-20T17:24:46.825Z,11.70
2019-02-20T17:27:16.995Z,11.70
2019-02-20T17:29:46.599Z,11.40
2019-02-20T17:32:19.160Z,12.83
2019-02-20T17:34:49.214Z,12.20
2019-02-20T17:37:22.853Z,12.70
2019-02-20T17:39:56.541Z,12.33
2019-02-20T17:42:25.948Z,12.60
2019-02-20T17:44:55.904Z,11.90
2019-02-20T17:47:25.494Z,13.10
2019-02-20T17:49:55.178Z,14.23
2019-02-20T17:52:28.434Z,12.40
2019-02-20T17:55:00.376Z,12.10
2019-02-20T17:57:33.134Z,13.10
2019-02-20T18:00:07.068Z,12.30
2019-02-20T18:02:37.465Z,12.10
2019-02-20T18:05:11.055Z,12.40
2019-02-20T18:07:48.812Z,12.70
2019-02-20T18:10:14.037Z,13.73
2019-02-20T18:12:43.614Z,12.17
2019-02-20T18:15:13.271Z,12.63
2019-02-20T18:17:43.767Z,13.33
2019-02-20T18:20:14.199Z,13.57
2019-02-20T18:22:47.636Z,12.50
2019-02-20T18:25:17.892Z,13.07
2019-02-20T18:27:47.260Z,12.87
2019-02-20T18:30:17.423Z,13.77
2019-02-20T18:32:49.730Z,13.50
2019-02-20T18:35:23.764Z,12.70
2019-02-20T18:37:54.334Z,12.17
2019-02-20T18:40:24.654Z,12.77
2019-02-20T18:42:57.446Z,12.50
2019-02-20T18:45:27.193Z,13.70
2019-02-20T18:47:57.227Z,13.60
2019-02-20T18:50:31.505Z,13.57
2019-02-20T18:53:01.354Z,14.10
2019-02-20T18:55:31.368Z,13.77
2019-02-20T18:58:06.288Z,15.27
2019-02-20T19:00:35.942Z,15.77
2019-02-20T19:03:06.679Z,15.20
2019-02-20T19:05:37.192Z,14.50
2019-02-20T19:09:03.118Z,15.50
2019-02-20T19:11:47.140Z,15.17
2019-02-20T19:14:46.459Z,14.40
2019-02-20T19:17:58.091Z,15.70
2019-02-20T19:20:58.986Z,13.23
2019-02-20T19:24:14.131Z,14.77
2019-02-20T19:27:15.940Z,15.60
2019-02-20T19:30:27.620Z,14.40
2019-02-20T19:33:14.419Z,16.63
2019-02-20T19:36:16.544Z,18.63
2019-02-20T19:39:13.244Z,16.93
2019-02-20T19:42:26.872Z,16.23
2019-02-20T19:45:33.124Z,17.10
2019-02-20T19:48:39.034Z,17.83
2019-02-20T19:51:41.037Z,18.60
2019-02-20T19:54:24.573Z,18.73
2019-02-20T19:57:20.698Z,20.37
2019-02-20T20:00:24.942Z,20.63
2019-02-20T20:03:32.999Z,19.13
2019-02-20T20:06:20.538Z,19.87
2019-02-20T20:09:12.308Z,18.57
2019-02-20T20:12:28.939Z,19.80
2019-02-20T20:15:30.201Z,20.70
2019-02-20T20:18:37.579Z,20.20
2019-02-20T20:21:31.208Z,18.77
2019-02-20T20:24:30.028Z,18.73
2019-02-20T20:27:42.998Z,19.17
2019-02-20T20:30:42.777Z,20.33
2019-02-20T20:33:57.081Z,17.90
2019-02-20T20:37:21.087Z,17.13
2019-02-20T20:40:35.096Z,16.43
2019-02-20T20:43:26.002Z,16.20
2019-02-20T20:46:32.869Z,15.87
2019-02-20T20:49:49.337Z,14.27
2019-02-20T20:53:09.304Z,15.20
2019-02-20T20:56:14.360Z,15.60
2019-02-20T20:59:17.232Z,14.67
2019-02-20T21:02:21.277Z,14.33
2019-02-20T21:05:47.453Z,14.77
2019-02-20T21:08:31.247Z,15.27
2019-02-20T21:11:44.886Z,15.33
2019-02-20T21:15:02.428Z,14.50
2019-02-20T21:18:27.498Z,15.30
2019-02-20T21:21:14.255Z,17.33
2019-02-20T21:24:24.914Z,14.30
2019-02-20T21:27:44.070Z,13.03
2019-02-20T21:30:43.229Z,14.40
2019-02-20T21:33:48.230Z,13.53
2019-02-20T21:36:24.305Z,14.23
2019-02-20T21:39:17.058Z,14.37
2019-02-20T21:42:17.032Z,14.93
2019-02-20T21:45:09.089Z,14.03
2019-02-20T21:48:32.366Z,14.03
2019-02-20T21:51:14.090Z,15.37
2019-02-20T21:54:34.920Z,13.17
2019-02-20T21:57:34.732Z,16.27
2019-02-20T22:00:57.929Z,14.40
2019-02-20T22:04:10.435Z,14.87
2019-02-20T22:07:27.019Z,15.80
2019-02-20T22:10:41.318Z,14.40
2019-02-20T22:13:46.758Z,14.53
2019-02-20T22:16:49.446Z,14.80
2019-02-20T22:20:05.404Z,14.67
2019-02-20T22:23:01.843Z,15.47
2019-02-20T22:26:03.501Z,14.90
2019-02-20T22:28:57.631Z,15.53
2019-02-20T22:31:50.274Z,15.63
2019-02-20T22:34:49.243Z,15.27
2019-02-20T22:37:51.373Z,15.17
2019-02-20T22:41:02.410Z,14.80
2019-02-20T22:43:58.178Z,15.53
2019-02-20T22:46:54.286Z,14.53
2019-02-20T22:50:04.633Z,15.20
2019-02-20T22:53:08.025Z,15.97
2019-02-20T22:56:16.480Z,14.90
2019-02-20T22:59:09.175Z,16.03
2019-02-20T23:02:26.706Z,17.20
2019-02-20T23:05:35.148Z,15.40
2019-02-20T23:08:25.940Z,15.33
2019-02-20T23:11:54.033Z,16.37
2019-02-20T23:14:55.860Z,16.33
2019-02-20T23:17:27.380Z,15.97
2019-02-20T23:19:57.341Z,16.87
2019-02-20T23:22:29.673Z,16.33
2019-02-20T23:25:00.295Z,15.60
2019-02-20T23:27:32.635Z,16.30
2019-02-20T23:30:12.856Z,16.17
2019-02-20T23:32:37.557Z,17.50
2019-02-20T23:35:07.813Z,16.47
2019-02-20T23:37:37.421Z,16.50
2019-02-20T23:40:08.140Z,17.23
2019-02-20T23:42:37.965Z,17.30
2019-02-20T23:45:07.171Z,17.03
2019-02-20T23:47:36.910Z,16.27
2019-02-20T23:50:06.386Z,16.77
2019-02-20T23:52:35.791Z,15.73
2019-02-20T23:55:05.620Z,15.00
2019-02-20T23:57:34.893Z,15.00
